Time;durP1;ratioP1;P1;durP2;ratioP2;P2;SDS_P1;SDS_P2;PMS_P1;PMS_P2;Temp;Humidity;BMP_temperature;BMP_pressure;BME280_temperature;BME280_humidity;BME280_pressure;Samples;Min_cycle;Max_cycle;Signal;HPM_P1;HPM_P2
2022/08/27 00:02:03;;;;;;;;;2.67;2.67;;;;;;;;4987233;28;45434;-74
2022/08/27 00:04:29;;;;;;;;;4.00;3.33;;;;;;;;4993061;28;46197;-74
2022/08/27 00:06:54;;;;;;;;;2.67;2.67;;;;;;;;4985556;27;45675;-73
2022/08/27 00:09:19;;;;;;;;;3.67;3.33;;;;;;;;4979370;27;45429;-75
2022/08/27 00:11:45;;;;;;;;;4.00;3.00;;;;;;;;4983588;27;45319;-74
2022/08/27 00:14:11;;;;;;;;;4.00;4.00;;;;;;;;4980334;28;46834;-74
2022/08/27 00:16:36;;;;;;;;;9.33;3.33;;;;;;;;4981591;27;45395;-74
2022/08/27 00:19:01;;;;;;;;;3.33;3.33;;;;;;;;4983272;27;45395;-74
2022/08/27 00:21:26;;;;;;;;;4.00;2.67;;;;;;;;4982655;27;45389;-74
2022/08/27 00:23:52;;;;;;;;;5.67;4.00;;;;;;;;4987086;28;45343;-74
2022/08/27 00:26:17;;;;;;;;;4.33;2.00;;;;;;;;4984778;28;45432;-74
2022/08/27 00:28:42;;;;;;;;;6.33;4.00;;;;;;;;4992179;28;45339;-74
2022/08/27 00:31:08;;;;;;;;;3.00;3.00;;;;;;;;4979751;28;45331;-74
2022/08/27 00:33:34;;;;;;;;;4.00;4.00;;;;;;;;4985615;28;46417;-74
2022/08/27 00:35:59;;;;;;;;;2.67;2.67;;;;;;;;4994290;27;44780;-74
2022/08/27 00:38:25;;;;;;;;;2.67;2.67;;;;;;;;4984057;28;45304;-74
2022/08/27 00:40:51;;;;;;;;;2.33;2.33;;;;;;;;4986980;28;45470;-74
2022/08/27 00:43:22;;;;;;;;;4.00;4.00;;;;;;;;4989148;28;45942;-74
2022/08/27 00:45:48;;;;;;;;;3.67;3.00;;;;;;;;4983247;28;45490;-74
2022/08/27 00:48:14;;;;;;;;;3.33;2.67;;;;;;;;4979808;28;45287;-74
2022/08/27 00:50:41;;;;;;;;;3.67;3.67;;;;;;;;4980003;28;45410;-74
2022/08/27 00:53:12;;;;;;;;;1.67;1.67;;;;;;;;4989461;28;46986;-74
2022/08/27 00:55:49;;;;;;;;;3.00;2.00;;;;;;;;4988971;27;45430;-74
2022/08/27 00:58:21;;;;;;;;;2.67;2.67;;;;;;;;4993266;27;45396;-74
2022/08/27 01:00:46;;;;;;;;;2.67;2.67;;;;;;;;4988286;28;45299;-74
2022/08/27 01:03:12;;;;;;;;;3.00;3.00;;;;;;;;4990090;28;46043;-74
2022/08/27 01:05:38;;;;;;;;;4.00;2.67;;;;;;;;4987602;28;45303;-74
2022/08/27 01:08:09;;;;;;;;;4.00;4.00;;;;;;;;4985238;27;45280;-74
2022/08/27 01:10:36;;;;;;;;;4.00;2.33;;;;;;;;4983806;27;45318;-74
2022/08/27 01:13:01;;;;;;;;;2.67;2.67;;;;;;;;4986647;28;46700;-74
2022/08/27 01:15:27;;;;;;;;;3.00;2.67;;;;;;;;4987054;28;45428;-74
2022/08/27 01:17:52;;;;;;;;;2.33;2.33;;;;;;;;4988080;27;45281;-74
2022/08/27 01:20:23;;;;;;;;;1.67;1.67;;;;;;;;4989391;27;45317;-74
2022/08/27 01:22:52;;;;;;;;;3.00;3.00;;;;;;;;4976697;28;46379;-75
2022/08/27 01:25:18;;;;;;;;;3.00;3.00;;;;;;;;4979906;28;45724;-74
2022/08/27 01:27:44;;;;;;;;;3.33;2.67;;;;;;;;4979048;28;45280;-74
2022/08/27 01:30:10;;;;;;;;;3.67;3.67;;;;;;;;4986854;27;45661;-74
2022/08/27 01:32:36;;;;;;;;;4.00;2.67;;;;;;;;4977295;28;47849;-74
2022/08/27 01:35:03;;;;;;;;;2.67;2.00;;;;;;;;5000823;27;45327;-74
2022/08/27 01:37:28;;;;;;;;;2.33;2.33;;;;;;;;4984662;27;45390;-74
2022/08/27 01:39:55;;;;;;;;;2.67;2.67;;;;;;;;4991184;28;45521;-74
2022/08/27 01:42:23;;;;;;;;;3.33;2.33;;;;;;;;4983348;27;45455;-74
2022/08/27 01:44:56;;;;;;;;;4.00;3.67;;;;;;;;4987325;28;45193;-74
2022/08/27 01:47:23;;;;;;;;;5.00;2.00;;;;;;;;4985628;27;45343;-74
2022/08/27 01:49:48;;;;;;;;;3.00;3.00;;;;;;;;4986995;28;45452;-74
2022/08/27 01:52:15;;;;;;;;;2.00;2.00;;;;;;;;4986454;27;48046;-73
2022/08/27 01:54:40;;;;;;;;;2.67;2.67;;;;;;;;4993269;28;45427;-74
2022/08/27 01:57:06;;;;;;;;;4.00;3.00;;;;;;;;4990006;27;46035;-74
2022/08/27 01:59:32;;;;;;;;;3.67;2.33;;;;;;;;4980723;28;46968;-74
2022/08/27 02:01:57;;;;;;;;;3.00;3.00;;;;;;;;4982869;28;45384;-74
2022/08/27 02:04:22;;;;;;;;;4.00;3.33;;;;;;;;4982534;28;45505;-74
2022/08/27 02:06:47;;;;;;;;;1.67;1.67;;;;;;;;4988979;27;45461;-74
2022/08/27 02:09:12;;;;;;;;;2.67;2.67;;;;;;;;4996529;27;48065;-73
2022/08/27 02:11:38;;;;;;;;;3.00;3.00;;;;;;;;4986362;27;45304;-73
2022/08/27 02:14:03;;;;;;;;;3.00;2.00;;;;;;;;4990982;27;45271;-73
2022/08/27 02:16:29;;;;;;;;;3.33;3.33;;;;;;;;4984977;27;45385;-73
2022/08/27 02:18:54;;;;;;;;;3.67;3.00;;;;;;;;4993764;27;45303;-73
2022/08/27 02:21:20;;;;;;;;;3.33;2.00;;;;;;;;4984278;27;47249;-73
2022/08/27 02:23:45;;;;;;;;;3.00;3.00;;;;;;;;4998276;27;45369;-73
2022/08/27 02:26:10;;;;;;;;;1.00;0.67;;;;;;;;4980882;27;45635;-73
2022/08/27 02:28:36;;;;;;;;;2.00;2.00;;;;;;;;4986662;28;45308;-73
2022/08/27 02:31:01;;;;;;;;;3.00;2.00;;;;;;;;4982700;27;46356;-73
2022/08/27 02:33:26;;;;;;;;;2.67;1.67;;;;;;;;4980300;28;45264;-73
2022/08/27 02:35:52;;;;;;;;;3.67;1.67;;;;;;;;4997684;27;45498;-74
2022/08/27 02:38:18;;;;;;;;;3.00;3.00;;;;;;;;4982963;28;45323;-74
2022/08/27 02:40:44;;;;;;;;;2.67;2.67;;;;;;;;4982956;27;45457;-73
2022/08/27 02:43:09;;;;;;;;;1.33;1.33;;;;;;;;4986740;28;45166;-74
2022/08/27 02:45:36;;;;;;;;;0.67;0.67;;;;;;;;4981549;27;45462;-73
2022/08/27 02:48:01;;;;;;;;;2.67;2.67;;;;;;;;4989117;28;45715;-74
2022/08/27 02:50:26;;;;;;;;;2.67;2.67;;;;;;;;4984017;27;45425;-73
2022/08/27 02:52:51;;;;;;;;;1.00;1.00;;;;;;;;4989640;27;45218;-73
2022/08/27 02:55:17;;;;;;;;;3.33;2.33;;;;;;;;4989770;27;45618;-74
2022/08/27 02:57:42;;;;;;;;;5.67;3.00;;;;;;;;4994586;27;45359;-73
2022/08/27 03:00:10;;;;;;;;;3.00;3.00;;;;;;;;4985713;27;45265;-74
2022/08/27 03:02:35;;;;;;;;;3.00;3.00;;;;;;;;4994941;27;45381;-73
2022/08/27 03:05:01;;;;;;;;;2.00;2.00;;;;;;;;4984082;27;45362;-74
2022/08/27 03:07:26;;;;;;;;;1.67;1.67;;;;;;;;4994056;27;46919;-73
2022/08/27 03:09:51;;;;;;;;;2.67;2.67;;;;;;;;4984713;27;45300;-74
2022/08/27 03:12:16;;;;;;;;;4.00;3.00;;;;;;;;4994368;27;45409;-73
2022/08/27 03:14:42;;;;;;;;;2.00;2.00;;;;;;;;4986894;27;45333;-74
2022/08/27 03:19:51;;;;;;;;;3.00;3.00;;;;;;;;4990708;28;45327;-74
2022/08/27 03:22:16;;;;;;;;;2.33;2.33;;;;;;;;4997390;27;45398;-74
2022/08/27 03:24:41;;;;;;;;;2.67;2.67;;;;;;;;4992387;27;45559;-74
2022/08/27 03:27:07;;;;;;;;;3.00;3.00;;;;;;;;4986325;27;45439;-73
2022/08/27 03:29:33;;;;;;;;;3.33;0.67;;;;;;;;4985802;27;45497;-74
2022/08/27 03:31:59;;;;;;;;;2.33;2.33;;;;;;;;4978883;27;45339;-73
2022/08/27 03:34:24;;;;;;;;;3.00;2.67;;;;;;;;4997554;27;45208;-73
2022/08/27 03:36:50;;;;;;;;;4.00;3.33;;;;;;;;4979960;28;45212;-73
2022/08/27 03:39:15;;;;;;;;;5.33;3.33;;;;;;;;4982827;28;45715;-73
2022/08/27 03:41:40;;;;;;;;;5.33;4.00;;;;;;;;4983010;27;45433;-74
2022/08/27 03:44:05;;;;;;;;;3.33;2.67;;;;;;;;4985451;27;45153;-74
2022/08/27 03:46:31;;;;;;;;;4.00;2.67;;;;;;;;4992872;27;45551;-74
2022/08/27 03:48:56;;;;;;;;;3.67;2.67;;;;;;;;4987747;28;45183;-73
2022/08/27 03:51:21;;;;;;;;;6.00;4.00;;;;;;;;4985684;28;45397;-73
2022/08/27 03:53:47;;;;;;;;;5.33;3.67;;;;;;;;4988571;27;45399;-74
2022/08/27 03:56:13;;;;;;;;;5.33;3.33;;;;;;;;4993622;27;46182;-73
2022/08/27 03:58:39;;;;;;;;;3.33;3.33;;;;;;;;4986942;28;47585;-73
2022/08/27 04:01:04;;;;;;;;;3.67;3.67;;;;;;;;4989687;28;45450;-73
2022/08/27 04:03:30;;;;;;;;;3.67;3.67;;;;;;;;4992100;27;45335;-73
2022/08/27 04:05:56;;;;;;;;;4.67;4.67;;;;;;;;4985334;27;45819;-73
2022/08/27 04:08:22;;;;;;;;;4.00;3.00;;;;;;;;4983089;28;45373;-74
2022/08/27 04:10:48;;;;;;;;;3.33;3.33;;;;;;;;4990051;27;45499;-73
2022/08/27 04:13:13;;;;;;;;;3.67;3.67;;;;;;;;4986968;27;45511;-73
2022/08/27 04:15:43;;;;;;;;;3.33;3.33;;;;;;;;4986357;27;45505;-73
2022/08/27 04:18:08;;;;;;;;;3.67;3.67;;;;;;;;4986717;28;45573;-73
2022/08/27 04:20:33;;;;;;;;;3.00;3.00;;;;;;;;4986564;27;45208;-73
2022/08/27 04:22:58;;;;;;;;;2.67;2.67;;;;;;;;4988587;27;45223;-74
2022/08/27 04:25:24;;;;;;;;;5.00;2.67;;;;;;;;4991439;27;45280;-74
2022/08/27 04:27:49;;;;;;;;;3.33;3.33;;;;;;;;4978788;27;45523;-74
2022/08/27 04:30:14;;;;;;;;;3.33;3.33;;;;;;;;4987462;27;45391;-73
2022/08/27 04:32:39;;;;;;;;;3.67;3.00;;;;;;;;4979805;28;45416;-73
2022/08/27 04:35:05;;;;;;;;;4.00;4.00;;;;;;;;5000170;27;45299;-73
2022/08/27 04:37:31;;;;;;;;;4.67;4.00;;;;;;;;4987685;27;45950;-73
2022/08/27 04:39:57;;;;;;;;;4.00;3.33;;;;;;;;4991973;28;45491;-73
2022/08/27 04:42:22;;;;;;;;;4.67;4.00;;;;;;;;4988420;27;45480;-73
2022/08/27 04:44:48;;;;;;;;;4.00;4.00;;;;;;;;4987034;28;45320;-74
2022/08/27 04:47:15;;;;;;;;;6.00;4.33;;;;;;;;4982704;28;45240;-74
2022/08/27 04:49:40;;;;;;;;;4.00;4.00;;;;;;;;4988016;27;45261;-73
2022/08/27 04:52:05;;;;;;;;;2.67;2.67;;;;;;;;4986137;28;45505;-74
2022/08/27 04:54:31;;;;;;;;;5.67;5.67;;;;;;;;4991300;28;45242;-73
2022/08/27 04:56:56;;;;;;;;;3.33;2.00;;;;;;;;4989149;28;45220;-73
2022/08/27 04:59:21;;;;;;;;;3.33;3.33;;;;;;;;4990903;28;45414;-73
2022/08/27 05:01:47;;;;;;;;;4.67;4.00;;;;;;;;4980305;28;45190;-73
2022/08/27 05:04:13;;;;;;;;;3.33;3.33;;;;;;;;4993185;27;46877;-73
2022/08/27 05:06:39;;;;;;;;;4.00;4.00;;;;;;;;4985707;28;46132;-76
2022/08/27 05:09:05;;;;;;;;;3.67;3.67;;;;;;;;4981981;27;45510;-75
2022/08/27 05:11:34;;;;;;;;;4.00;2.67;;;;;;;;4989207;28;45317;-75
2022/08/27 05:14:06;;;;;;;;;4.00;4.00;;;;;;;;4977226;27;46033;-75
2022/08/27 05:16:34;;;;;;;;;3.67;3.67;;;;;;;;4983698;28;46414;-75
2022/08/27 05:18:59;;;;;;;;;3.00;3.00;;;;;;;;4981142;28;45285;-75
2022/08/27 05:21:26;;;;;;;;;5.67;4.67;;;;;;;;4990062;27;45442;-75
2022/08/27 05:23:53;;;;;;;;;3.67;3.67;;;;;;;;4984789;27;46317;-75
2022/08/27 05:26:18;;;;;;;;;4.00;4.00;;;;;;;;4978778;28;45438;-75
2022/08/27 05:28:44;;;;;;;;;6.67;4.00;;;;;;;;4987288;28;45328;-75
2022/08/27 05:31:10;;;;;;;;;2.67;2.67;;;;;;;;4984661;28;45520;-75
2022/08/27 05:33:37;;;;;;;;;7.00;4.00;;;;;;;;4986326;27;45508;-75
2022/08/27 05:36:03;;;;;;;;;4.67;4.67;;;;;;;;4997081;27;45989;-75
2022/08/27 05:38:29;;;;;;;;;5.33;2.67;;;;;;;;4988116;27;45314;-74
2022/08/27 05:41:23;;;;;;;;;6.33;4.33;;;;;;;;4984675;27;45235;-73
2022/08/27 05:43:49;;;;;;;;;4.00;3.33;;;;;;;;4997630;27;45569;-75
2022/08/27 05:46:15;;;;;;;;;3.00;2.67;;;;;;;;4991111;28;46258;-74
2022/08/27 05:48:41;;;;;;;;;3.67;3.67;;;;;;;;4997556;28;45363;-72
2022/08/27 05:51:11;;;;;;;;;3.33;2.33;;;;;;;;4992271;27;45411;-72
2022/08/27 05:53:37;;;;;;;;;7.00;5.67;;;;;;;;4997093;28;45320;-73
2022/08/27 05:56:03;;;;;;;;;4.33;3.67;;;;;;;;4992366;28;45291;-76
2022/08/27 06:01:12;;;;;;;;;6.00;4.00;;;;;;;;4994428;28;45276;-74
2022/08/27 06:03:39;;;;;;;;;4.00;4.00;;;;;;;;4998283;27;45579;-74
2022/08/27 06:06:05;;;;;;;;;6.33;4.67;;;;;;;;4993264;28;45920;-75
2022/08/27 06:08:31;;;;;;;;;6.67;5.67;;;;;;;;5008148;27;45475;-74
2022/08/27 06:10:59;;;;;;;;;5.67;3.67;;;;;;;;4982113;28;45434;-74
2022/08/27 06:13:24;;;;;;;;;5.67;4.00;;;;;;;;4995981;27;46521;-75
2022/08/27 06:15:50;;;;;;;;;5.33;4.00;;;;;;;;4989924;28;45755;-75
2022/08/27 06:18:15;;;;;;;;;5.67;5.67;;;;;;;;4997713;28;45424;-74
2022/08/27 06:20:40;;;;;;;;;6.00;4.67;;;;;;;;4992927;28;45484;-73
2022/08/27 06:23:05;;;;;;;;;4.67;3.67;;;;;;;;4997640;27;45433;-75
2022/08/27 06:25:31;;;;;;;;;8.00;5.00;;;;;;;;4991752;27;45993;-75
2022/08/27 06:27:57;;;;;;;;;7.33;5.33;;;;;;;;4997742;27;45477;-75
2022/08/27 06:30:22;;;;;;;;;8.00;4.67;;;;;;;;4993485;27;45471;-75
2022/08/27 06:32:47;;;;;;;;;4.33;4.33;;;;;;;;4996069;27;46157;-76
2022/08/27 06:35:13;;;;;;;;;6.33;5.67;;;;;;;;4998849;27;46363;-69
2022/08/27 06:37:38;;;;;;;;;5.00;4.67;;;;;;;;4997497;28;45485;-69
2022/08/27 06:40:03;;;;;;;;;6.67;5.67;;;;;;;;4992055;27;45436;-68
2022/08/27 06:42:30;;;;;;;;;3.67;2.67;;;;;;;;4993385;27;45241;-68
2022/08/27 06:44:55;;;;;;;;;6.33;3.33;;;;;;;;4991684;28;45275;-69
2022/08/27 06:47:21;;;;;;;;;6.00;5.67;;;;;;;;4986648;27;45423;-73
2022/08/27 06:49:46;;;;;;;;;8.00;5.67;;;;;;;;4982103;28;45332;-73
2022/08/27 06:52:11;;;;;;;;;7.67;5.33;;;;;;;;4985261;28;45194;-72
2022/08/27 06:54:38;;;;;;;;;6.67;5.67;;;;;;;;4982948;27;45427;-73
2022/08/27 06:57:03;;;;;;;;;5.33;5.33;;;;;;;;4986595;28;45243;-72
2022/08/27 06:59:29;;;;;;;;;6.00;4.67;;;;;;;;4993724;27;45370;-73
2022/08/27 07:01:54;;;;;;;;;4.67;4.67;;;;;;;;4988787;27;45532;-73
2022/08/27 07:04:21;;;;;;;;;8.33;6.33;;;;;;;;4987933;27;46264;-73
2022/08/27 07:06:46;;;;;;;;;5.67;5.67;;;;;;;;4980055;27;45387;-73
2022/08/27 07:09:13;;;;;;;;;5.33;5.00;;;;;;;;4991341;27;45432;-73
2022/08/27 07:11:38;;;;;;;;;7.67;5.67;;;;;;;;4981187;27;45319;-73
2022/08/27 07:14:04;;;;;;;;;5.67;5.67;;;;;;;;4994885;27;46250;-73
2022/08/27 07:16:30;;;;;;;;;6.00;6.00;;;;;;;;4982500;27;45240;-73
2022/08/27 07:18:56;;;;;;;;;9.33;5.67;;;;;;;;4996406;28;45283;-73
2022/08/27 07:21:22;;;;;;;;;7.33;6.00;;;;;;;;4983962;27;45572;-73
2022/08/27 07:23:48;;;;;;;;;9.00;8.00;;;;;;;;4990696;27;45275;-73
2022/08/27 07:26:14;;;;;;;;;9.00;6.67;;;;;;;;4980927;28;45335;-73
2022/08/27 07:28:40;;;;;;;;;8.33;5.33;;;;;;;;4980860;27;45240;-73
2022/08/27 07:31:07;;;;;;;;;5.00;5.00;;;;;;;;4981220;27;45482;-74
2022/08/27 07:33:33;;;;;;;;;6.67;5.67;;;;;;;;4990490;27;46057;-74
2022/08/27 07:35:58;;;;;;;;;9.00;7.00;;;;;;;;5000119;27;45449;-73
2022/08/27 07:38:23;;;;;;;;;8.00;7.00;;;;;;;;4986767;27;45330;-74
2022/08/27 07:40:51;;;;;;;;;6.67;6.67;;;;;;;;4981559;28;45518;-73
2022/08/27 07:46:00;;;;;;;;;6.33;6.33;;;;;;;;4986281;28;45307;-73
2022/08/27 07:48:26;;;;;;;;;7.00;7.00;;;;;;;;4989305;27;45412;-74
2022/08/27 07:50:52;;;;;;;;;7.33;6.00;;;;;;;;4988171;27;45574;-74
2022/08/27 07:53:18;;;;;;;;;6.33;6.33;;;;;;;;4990000;28;45716;-73
2022/08/27 07:55:44;;;;;;;;;6.33;6.00;;;;;;;;4984819;27;45387;-73
2022/08/27 07:58:10;;;;;;;;;8.33;6.00;;;;;;;;4979726;28;45477;-72
2022/08/27 08:00:35;;;;;;;;;7.67;7.67;;;;;;;;4984294;27;45446;-73
2022/08/27 08:03:01;;;;;;;;;9.00;6.00;;;;;;;;4985981;27;45484;-73
2022/08/27 08:05:26;;;;;;;;;7.00;6.00;;;;;;;;4990250;27;45354;-72
2022/08/27 08:07:51;;;;;;;;;9.33;6.67;;;;;;;;4991242;27;45459;-72
2022/08/27 08:10:18;;;;;;;;;8.00;7.67;;;;;;;;4987917;27;45461;-73
2022/08/27 08:12:43;;;;;;;;;6.33;4.67;;;;;;;;4987169;27;47631;-73
2022/08/27 08:15:09;;;;;;;;;7.67;6.67;;;;;;;;4987737;28;45393;-73
2022/08/27 08:17:35;;;;;;;;;4.33;4.33;;;;;;;;4984784;28;45357;-72
2022/08/27 08:20:01;;;;;;;;;6.67;4.33;;;;;;;;4988001;27;45522;-73
2022/08/27 08:22:26;;;;;;;;;7.00;5.33;;;;;;;;4986765;27;46124;-73
2022/08/27 08:24:52;;;;;;;;;6.00;5.00;;;;;;;;4988794;28;45206;-73
2022/08/27 08:27:19;;;;;;;;;5.67;4.67;;;;;;;;4977938;27;45398;-73
2022/08/27 08:29:44;;;;;;;;;5.67;5.67;;;;;;;;4989643;27;45278;-72
2022/08/27 08:32:10;;;;;;;;;6.67;6.00;;;;;;;;4978677;28;46348;-72
2022/08/27 08:34:35;;;;;;;;;4.33;4.33;;;;;;;;4997604;27;45753;-72
2022/08/27 08:37:01;;;;;;;;;9.67;6.33;;;;;;;;4985375;27;45718;-72
2022/08/27 08:39:26;;;;;;;;;4.75;4.75;;;;;;;;4980915;28;45479;-72
2022/08/27 08:41:54;;;;;;;;;4.25;4.25;;;;;;;;4986647;27;46999;-73
2022/08/27 08:44:25;;;;;;;;;4.00;4.00;;;;;;;;4983225;28;45287;-73
2022/08/27 08:46:57;;;;;;;;;4.00;3.00;;;;;;;;4982402;27;45346;-73
2022/08/27 08:49:35;;;;;;;;;7.25;5.00;;;;;;;;4986494;27;46108;-72
2022/08/27 08:52:07;;;;;;;;;3.25;2.75;;;;;;;;4983722;27;45351;-72
2022/08/27 08:54:33;;;;;;;;;6.75;5.50;;;;;;;;4989381;28;45515;-72
2022/08/27 08:57:18;;;;;;;;;4.75;4.00;;;;;;;;4985972;28;45224;-73
2022/08/27 08:59:46;;;;;;;;;5.75;5.00;;;;;;;;4989319;27;46214;-73
2022/08/27 09:02:13;;;;;;;;;4.00;4.00;;;;;;;;4978334;27;46149;-73
2022/08/27 09:04:39;;;;;;;;;5.75;4.25;;;;;;;;4992959;27;45629;-75
2022/08/27 09:07:10;;;;;;;;;7.00;5.50;;;;;;;;4983065;28;45395;-73
2022/08/27 09:09:35;;;;;;;;;3.50;3.50;;;;;;;;4991564;27;46023;-73
2022/08/27 09:12:00;;;;;;;;;3.25;3.25;;;;;;;;4990585;27;46421;-73
2022/08/27 09:14:25;;;;;;;;;5.25;4.75;;;;;;;;4984112;28;45369;-73
2022/08/27 09:16:51;;;;;;;;;6.00;4.00;;;;;;;;4986781;28;45316;-73
2022/08/27 09:19:16;;;;;;;;;3.00;3.00;;;;;;;;4988583;27;45386;-72
2022/08/27 09:21:42;;;;;;;;;4.50;4.25;;;;;;;;4978999;28;45314;-73
2022/08/27 09:24:10;;;;;;;;;6.25;6.00;;;;;;;;4987386;28;45341;-72
2022/08/27 09:26:37;;;;;;;;;3.00;3.00;;;;;;;;4986452;28;45262;-73
2022/08/27 09:29:19;;;;;;;;;8.25;4.00;;;;;;;;4991435;28;45563;-72
2022/08/27 09:31:45;;;;;;;;;4.50;3.50;;;;;;;;4983264;28;45368;-74
2022/08/27 09:34:11;;;;;;;;;2.25;2.00;;;;;;;;5007790;27;48215;-73
2022/08/27 09:36:50;;;;;;;;;3.00;3.00;;;;;;;;4982063;28;45233;-73
2022/08/27 09:39:15;;;;;;;;;4.00;3.25;;;;;;;;4988770;28;45446;-72
2022/08/27 09:41:45;;;;;;;;;9.50;6.50;;;;;;;;4990189;28;45325;-72
2022/08/27 09:44:11;;;;;;;;;4.20;3.40;;;;;;;;4994245;28;45400;-72
2022/08/27 09:46:37;;;;;;;;;4.00;4.00;;;;;;;;4990180;28;45251;-71
2022/08/27 09:49:13;;;;;;;;;5.00;4.00;;;;;;;;4994758;28;45207;-70
2022/08/27 09:51:39;;;;;;;;;4.00;3.25;;;;;;;;4989688;28;45413;-71
2022/08/27 09:54:06;;;;;;;;;3.60;3.60;;;;;;;;4994522;28;45307;-71
2022/08/27 09:56:35;;;;;;;;;6.00;6.00;;;;;;;;4989963;28;45253;-71
2022/08/27 09:59:09;;;;;;;;;4.50;4.25;;;;;;;;4995447;27;45820;-71
2022/08/27 10:01:37;;;;;;;;;4.80;3.40;;;;;;;;4981815;28;45418;-71
2022/08/27 10:04:04;;;;;;;;;2.40;2.40;;;;;;;;4993275;28;45443;-72
2022/08/27 10:06:31;;;;;;;;;8.60;4.80;;;;;;;;4982106;28;45284;-72
2022/08/27 10:09:08;;;;;;;;;4.50;4.50;;;;;;;;4991388;28;45530;-72
2022/08/27 10:11:43;;;;;;;;;3.40;3.40;;;;;;;;4991033;28;46289;-72
2022/08/27 10:14:12;;;;;;;;;4.80;3.60;;;;;;;;4995657;28;45315;-72
2022/08/27 10:16:51;;;;;;;;;4.20;3.40;;;;;;;;4993280;28;45288;-72
2022/08/27 10:19:35;;;;;;;;;3.20;3.20;;;;;;;;4991988;27;47586;-71
2022/08/27 10:22:01;;;;;;;;;3.20;3.20;;;;;;;;4987588;28;45428;-72
2022/08/27 10:24:37;;;;;;;;;3.25;3.25;;;;;;;;4981218;28;45283;-73
2022/08/27 10:27:17;;;;;;;;;2.20;2.20;;;;;;;;4995834;28;45452;-69
2022/08/27 10:29:45;;;;;;;;;4.00;3.00;;;;;;;;4993269;28;45285;-70
2022/08/27 10:32:18;;;;;;;;;2.00;2.00;;;;;;;;4988510;27;46431;-73
2022/08/27 10:34:55;;;;;;;;;2.80;2.80;;;;;;;;4991721;27;45424;-70
2022/08/27 10:37:29;;;;;;;;;2.60;2.00;;;;;;;;4983310;28;45587;-69
2022/08/27 10:40:07;;;;;;;;;4.80;3.60;;;;;;;;4980930;27;45391;-70
2022/08/27 10:42:41;;;;;;;;;3.00;1.40;;;;;;;;4987884;27;45398;-70
2022/08/27 10:45:15;;;;;;;;;4.40;2.40;;;;;;;;4991424;27;45317;-70
2022/08/27 10:47:43;;;;;;;;;3.40;3.40;;;;;;;;4988850;28;45447;-70
2022/08/27 10:50:20;;;;;;;;;4.20;3.00;;;;;;;;4989365;27;45556;-70
2022/08/27 10:52:47;;;;;;;;;3.60;2.40;;;;;;;;4989916;27;48302;-70
2022/08/27 10:55:18;;;;;;;;;2.20;2.20;;;;;;;;4983721;27;45279;-71
2022/08/27 10:57:47;;;;;;;;;2.60;2.60;;;;;;;;4993077;27;45359;-72
2022/08/27 11:00:17;;;;;;;;;3.80;3.80;;;;;;;;4990524;27;45215;-70
2022/08/27 11:02:42;;;;;;;;;4.60;2.80;;;;;;;;4986638;28;46220;-70
2022/08/27 11:05:16;;;;;;;;;6.00;4.25;;;;;;;;4990375;28;45371;-72
2022/08/27 11:07:49;;;;;;;;;5.40;3.00;;;;;;;;4988090;27;45489;-71
2022/08/27 11:10:24;;;;;;;;;2.00;2.00;;;;;;;;4991816;27;46545;-72
2022/08/27 11:12:51;;;;;;;;;3.00;3.00;;;;;;;;4978584;28;46006;-73
2022/08/27 11:15:16;;;;;;;;;4.80;3.00;;;;;;;;4983591;27;45395;-72
2022/08/27 11:17:50;;;;;;;;;2.25;2.25;;;;;;;;4980796;28;45264;-72
2022/08/27 11:20:22;;;;;;;;;2.00;2.00;;;;;;;;4987099;27;45362;-72
2022/08/27 11:22:53;;;;;;;;;5.00;2.40;;;;;;;;4982334;27;46335;-72
2022/08/27 11:25:21;;;;;;;;;2.40;2.40;;;;;;;;4978784;27;45434;-72
2022/08/27 11:27:50;;;;;;;;;2.80;2.80;;;;;;;;4983280;27;45418;-72
2022/08/27 11:30:15;;;;;;;;;3.20;2.20;;;;;;;;4987109;27;45668;-72
2022/08/27 11:32:59;;;;;;;;;1.50;1.50;;;;;;;;4983636;27;46154;-73
2022/08/27 11:35:34;;;;;;;;;4.00;4.00;;;;;;;;5005070;27;45272;-72
2022/08/27 11:38:14;;;;;;;;;2.20;2.20;;;;;;;;4986140;27;45177;-72
2022/08/27 11:40:48;;;;;;;;;2.20;2.20;;;;;;;;4990684;28;45360;-72
2022/08/27 11:43:15;;;;;;;;;3.40;2.60;;;;;;;;4977879;27;47258;-71
2022/08/27 11:45:52;;;;;;;;;2.80;0.60;;;;;;;;4984066;28;45414;-74
2022/08/27 11:48:22;;;;;;;;;3.20;2.00;;;;;;;;4988825;28;45288;-73
2022/08/27 11:51:04;;;;;;;;;4.20;1.40;;;;;;;;4986582;27;45439;-72
2022/08/27 11:53:40;;;;;;;;;3.00;2.20;;;;;;;;4988112;27;46125;-72
2022/08/27 11:56:14;;;;;;;;;2.20;2.20;;;;;;;;4984562;27;45316;-71
2022/08/27 11:58:40;;;;;;;;;2.00;2.00;;;;;;;;4988330;28;45434;-72
2022/08/27 12:01:13;;;;;;;;;3.40;3.20;;;;;;;;4990667;28;45517;-73
2022/08/27 12:03:39;;;;;;;;;2.20;0.20;;;;;;;;4995598;28;46317;-73
2022/08/27 12:06:07;;;;;;;;;6.25;4.00;;;;;;;;4986001;28;45215;-73
2022/08/27 12:08:33;;;;;;;;;15.60;15.00;;;;;;;;4995021;28;45350;-72
2022/08/27 12:11:17;;;;;;;;;4.00;4.00;;;;;;;;4991613;28;45962;-75
2022/08/27 12:13:42;;;;;;;;;2.40;1.60;;;;;;;;4993645;27;45292;-73
2022/08/27 12:16:17;;;;;;;;;3.50;2.50;;;;;;;;4982895;28;45371;-73
2022/08/27 12:18:42;;;;;;;;;4.20;4.20;;;;;;;;4994667;27;45469;-74
2022/08/27 12:21:10;;;;;;;;;2.00;2.00;;;;;;;;4985763;27;45566;-74
2022/08/27 12:23:45;;;;;;;;;1.60;1.60;;;;;;;;4977463;27;46969;-74
2022/08/27 12:26:31;;;;;;;;;2.00;2.00;;;;;;;;4980565;28;45543;-74
2022/08/27 12:29:15;;;;;;;;;3.00;3.00;;;;;;;;4996406;28;45426;-74
2022/08/27 12:31:43;;;;;;;;;9.40;8.60;;;;;;;;4979339;28;45435;-74
2022/08/27 12:34:17;;;;;;;;;5.00;4.20;;;;;;;;4990192;27;45767;-74
2022/08/27 12:36:43;;;;;;;;;3.20;3.20;;;;;;;;4983553;27;45513;-74
2022/08/27 12:39:16;;;;;;;;;4.60;3.20;;;;;;;;4992798;27;45380;-74
2022/08/27 12:41:45;;;;;;;;;2.20;2.20;;;;;;;;4991277;28;45411;-74
2022/08/27 12:44:12;;;;;;;;;5.80;4.00;;;;;;;;4994934;28;46422;-74
2022/08/27 12:46:43;;;;;;;;;2.60;2.60;;;;;;;;4989449;28;45520;-74
2022/08/27 12:49:08;;;;;;;;;4.60;2.80;;;;;;;;4993864;28;45493;-74
2022/08/27 12:51:36;;;;;;;;;1.25;1.25;;;;;;;;4989029;28;45473;-74
2022/08/27 12:54:10;;;;;;;;;1.60;1.60;;;;;;;;4995821;28;45589;-74
2022/08/27 12:56:54;;;;;;;;;2.00;2.00;;;;;;;;4992315;28;46487;-74
2022/08/27 12:59:38;;;;;;;;;2.20;1.20;;;;;;;;4993461;28;45327;-74
2022/08/27 13:02:21;;;;;;;;;1.00;1.00;;;;;;;;4986606;28;46315;-74
2022/08/27 13:04:47;;;;;;;;;1.20;1.00;;;;;;;;4989924;27;45491;-74
2022/08/27 13:07:23;;;;;;;;;1.75;1.25;;;;;;;;4990613;27;45216;-74
2022/08/27 13:09:48;;;;;;;;;1.40;1.00;;;;;;;;4989305;28;45419;-75
2022/08/27 13:12:15;;;;;;;;;3.75;2.75;;;;;;;;4992923;28;45408;-75
2022/08/27 13:14:40;;;;;;;;;1.40;1.40;;;;;;;;4991466;27;45941;-75
2022/08/27 13:17:07;;;;;;;;;3.00;1.00;;;;;;;;4993860;28;45458;-75
2022/08/27 13:19:34;;;;;;;;;0.20;0.20;;;;;;;;4991448;28;45741;-75
2022/08/27 13:22:00;;;;;;;;;1.20;1.20;;;;;;;;4989677;27;45371;-75
2022/08/27 13:24:36;;;;;;;;;0.75;0.25;;;;;;;;4993393;28;45437;-74
2022/08/27 13:27:03;;;;;;;;;1.00;1.00;;;;;;;;4977428;27;45269;-75
2022/08/27 13:29:28;;;;;;;;;1.00;1.00;;;;;;;;4998349;28;45442;-74
2022/08/27 13:31:54;;;;;;;;;1.00;1.00;;;;;;;;4978128;28;45292;-75
2022/08/27 13:34:21;;;;;;;;;2.00;2.00;;;;;;;;4987641;28;46213;-75
2022/08/27 13:36:57;;;;;;;;;2.00;2.00;;;;;;;;4980449;28;45363;-75
2022/08/27 13:39:22;;;;;;;;;5.60;5.20;;;;;;;;4992661;28;45556;-74
2022/08/27 13:41:48;;;;;;;;;1.00;0.00;;;;;;;;4985875;27;45810;-74
2022/08/27 13:44:17;;;;;;;;;1.25;1.00;;;;;;;;4988288;28;45818;-74
2022/08/27 13:46:45;;;;;;;;;0.20;0.20;;;;;;;;4982533;27;45280;-75
2022/08/27 13:49:14;;;;;;;;;1.20;1.20;;;;;;;;4986465;27;45208;-74
2022/08/27 13:51:40;;;;;;;;;0.60;0.60;;;;;;;;4986739;27;46683;-74
2022/08/27 13:54:17;;;;;;;;;0.40;0.40;;;;;;;;4989254;28;45692;-74
2022/08/27 13:56:45;;;;;;;;;1.60;0.40;;;;;;;;4987711;27;45426;-75
2022/08/27 13:59:12;;;;;;;;;1.20;1.00;;;;;;;;4993624;28;45424;-75
2022/08/27 14:01:41;;;;;;;;;0.80;0.80;;;;;;;;4987547;27;45484;-75
2022/08/27 14:04:07;;;;;;;;;0.40;0.20;;;;;;;;4996991;27;46118;-75
2022/08/27 14:06:32;;;;;;;;;2.60;1.60;;;;;;;;4981926;27;45377;-75
2022/08/27 14:09:08;;;;;;;;;0.75;0.75;;;;;;;;4995900;28;45498;-74
2022/08/27 14:11:33;;;;;;;;;1.00;1.00;;;;;;;;4983737;27;45467;-75
2022/08/27 14:13:59;;;;;;;;;1.00;1.00;;;;;;;;4991967;28;47144;-74
2022/08/27 14:16:29;;;;;;;;;1.00;1.00;;;;;;;;4981833;27;45391;-75
2022/08/27 14:19:10;;;;;;;;;0.60;0.00;;;;;;;;4989169;27;45296;-74
2022/08/27 14:21:38;;;;;;;;;1.00;1.00;;;;;;;;4984586;27;46138;-75
2022/08/27 14:24:03;;;;;;;;;0.80;0.80;;;;;;;;4992841;28;46196;-75
2022/08/27 14:26:29;;;;;;;;;1.25;1.25;;;;;;;;4988467;28;45477;-75
2022/08/27 14:28:54;;;;;;;;;0.00;0.00;;;;;;;;4986058;27;45294;-75
2022/08/27 14:31:19;;;;;;;;;0.25;0.25;;;;;;;;4981827;27;45407;-75
2022/08/27 14:33:48;;;;;;;;;1.25;1.25;;;;;;;;4993734;27;46776;-74
2022/08/27 14:36:14;;;;;;;;;1.00;1.00;;;;;;;;5006600;27;45330;-78
2022/08/27 14:38:42;;;;;;;;;1.50;1.50;;;;;;;;4990884;27;45337;-76
2022/08/27 14:41:07;;;;;;;;;1.00;0.00;;;;;;;;4983618;28;45354;-74
2022/08/27 14:43:33;;;;;;;;;0.25;0.25;;;;;;;;4988199;27;46723;-76
2022/08/27 14:45:59;;;;;;;;;0.00;0.00;;;;;;;;4986078;27;45339;-76
2022/08/27 14:48:32;;;;;;;;;2.00;2.00;;;;;;;;4989714;28;45298;-76
2022/08/27 14:50:58;;;;;;;;;2.20;2.20;;;;;;;;4987785;27;45502;-76
2022/08/27 14:53:24;;;;;;;;;3.00;1.40;;;;;;;;4990735;27;45409;-74
2022/08/27 14:55:50;;;;;;;;;2.40;2.40;;;;;;;;4988004;27;45457;-74